»·PEaware :: WAT234 KSAN-KSBD

WAT234 :: KSAN-KSBD

FLIGHT INFORMATION

Flight Status: Arrived
Operator:
Walker Air Transport
More flights by this operator :: More flights under this callsign
Pilot: Eduardo Elias G. (24838)
Aircraft: CIRRUS SR-22
(SR22)
More flights by this aircraft type
Origin: KSAN San Diego Intl-Lindbergh
United States
Destination: KSBD San Bernardino Intl
United States
More flights between these airports :: More routes between these airports
Route: OCN V23 DANAH V363 POXKU V8 PDZ
File this flight plan on PilotEdge
Remarks: Tec route SANP19
Altitude:
(Current/Filed)
6,000ft
Speed:
(Current/Filed)
180kts
Departed: 04-Sep-20 09:28 PM
Arrived: 04-Sep-20 10:05 PM
Distance/Time
Traveled:
82nm/0:36
Distance/Time
To Go:
Arrived

Flight Plot

Page will automatically refresh every two minutes.


Map Options




Map Legend


Flown Route
Filed Route
Departure Airport
Arrival Airport
Navaid (VOR, NDB)
Fix

Horizontal Profiles

Position Reports

Time Latitude Longitude Heading Altitude Ground
Speed
04-Sep-20 21:04 32.733335 -117.178174 17 20ft 0kts
04-Sep-20 21:05 32.733335 -117.178174 17 20ft 0kts
04-Sep-20 21:06 32.733335 -117.178174 17 20ft 0kts
04-Sep-20 21:07 32.733335 -117.178174 17 20ft 0kts
04-Sep-20 21:08 32.733335 -117.178174 17 20ft 0kts
04-Sep-20 21:09 32.733335 -117.178174 17 20ft 0kts
04-Sep-20 21:10 32.733335 -117.178174 17 20ft 0kts
04-Sep-20 21:11 32.733335 -117.178174 17 20ft 0kts
04-Sep-20 21:12 32.733335 -117.178174 17 20ft 0kts
04-Sep-20 21:13 32.733335 -117.178174 17 20ft 0kts
04-Sep-20 21:14 32.733335 -117.178174 17 20ft 0kts
04-Sep-20 21:15 32.733335 -117.178174 17 20ft 0kts
04-Sep-20 21:16 32.733335 -117.178174 17 20ft 0kts
04-Sep-20 21:17 32.733335 -117.178174 17 20ft 0kts
04-Sep-20 21:18 32.733335 -117.178174 17 20ft 0kts
04-Sep-20 21:19 32.733335 -117.178174 17 20ft 0kts
04-Sep-20 21:20 32.733335 -117.178174 17 20ft 0kts
04-Sep-20 21:21 32.733335 -117.178174 17 20ft 0kts
04-Sep-20 21:22 32.733335 -117.178174 17 20ft 0kts
04-Sep-20 21:23 32.733405 -117.178202 264 20ft 0kts
04-Sep-20 21:24 32.733173 -117.179634 200 20ft 7kts
04-Sep-20 21:25 32.731808 -117.177691 106 20ft 10kts
04-Sep-20 21:26 32.730848 -117.175414 139 20ft 5kts
04-Sep-20 21:27 32.733687 -117.189951 290 279ft 111kts
04-Sep-20 21:28 32.758722 -117.220178 320 1895ft 122kts
04-Sep-20 21:29 32.794925 -117.256162 319 1969ft 174kts
04-Sep-20 21:30 32.837813 -117.298117 321 1929ft 176kts
04-Sep-20 21:31 32.881000 -117.332141 333 2567ft 153kts
04-Sep-20 21:32 32.921007 -117.357413 334 3073ft 169kts
04-Sep-20 21:33 32.964783 -117.383423 332 4087ft 150kts
04-Sep-20 21:34 33.002662 -117.406353 332 4769ft 154kts
04-Sep-20 21:35 33.043901 -117.431372 331 5785ft 143kts
04-Sep-20 21:36 33.085824 -117.456873 332 5959ft 172kts
04-Sep-20 21:37 33.133976 -117.486146 331 5926ft 177kts
04-Sep-20 21:38 33.179915 -117.514143 331 5931ft 177kts
04-Sep-20 21:39 33.224640 -117.541430 331 5944ft 177kts
04-Sep-20 21:40 33.269045 -117.568551 331 5944ft 178kts
04-Sep-20 21:41 33.313372 -117.595650 331 5943ft 178kts
04-Sep-20 21:42 33.358003 -117.622978 331 5944ft 178kts
04-Sep-20 21:43 33.402433 -117.650212 330 5944ft 178kts
04-Sep-20 21:44 33.447150 -117.677649 330 5946ft 178kts
04-Sep-20 21:45 33.493377 -117.700511 350 5978ft 179kts
04-Sep-20 21:46 33.543456 -117.708899 350 6012ft 179kts
04-Sep-20 21:47 33.595395 -117.717606 350 5992ft 180kts
04-Sep-20 21:48 33.645871 -117.726081 350 6000ft 180kts
04-Sep-20 21:49 33.694224 -117.739703 336 6001ft 179kts
04-Sep-20 21:50 33.740636 -117.761544 336 6000ft 179kts
04-Sep-20 21:51 33.787777 -117.780992 356 5995ft 181kts
04-Sep-20 21:52 33.838004 -117.782093 357 6000ft 181kts
04-Sep-20 21:53 33.866104 -117.736086 77 5519ft 196kts
04-Sep-20 21:54 33.890209 -117.673798 60 4995ft 188kts
04-Sep-20 21:55 33.917059 -117.616665 60 4998ft 180kts
04-Sep-20 21:56 33.941691 -117.564172 60 5000ft 179kts
04-Sep-20 21:57 33.966326 -117.511589 60 4949ft 183kts
04-Sep-20 21:58 33.992916 -117.454769 60 4079ft 198kts
04-Sep-20 21:59 34.021745 -117.399849 56 3541ft 193kts
04-Sep-20 22:00 34.051465 -117.345164 56 2675ft 192kts
04-Sep-20 22:01 34.074168 -117.298360 67 2085ft 102kts
04-Sep-20 22:02 34.084981 -117.268178 66 1553ft 96kts
04-Sep-20 22:03 34.093554 -117.240659 69 1135ft 56kts
04-Sep-20 22:04 34.096303 -117.236441 327 1135ft 5kts
04-Sep-20 22:05 34.098085 -117.237946 288 1135ft 11kts

Navigation Log

Ident Type
Flight plan parsing failed, navigation log unavailable